sensor_id;sensor_type;location;lat;lon;timestamp;P1;durP1;ratioP1;P2;durP2;ratioP2
67902;SDS011;54708;43.612;1.568;2023-04-28T00:01:45;3.75;;;1.40;;
67902;SDS011;54708;43.612;1.568;2023-04-28T00:04:10;1.85;;;1.42;;
67902;SDS011;54708;43.612;1.568;2023-04-28T00:06:36;1.60;;;1.50;;
67902;SDS011;54708;43.612;1.568;2023-04-28T00:09:01;3.55;;;1.45;;
67902;SDS011;54708;43.612;1.568;2023-04-28T00:11:27;1.55;;;1.33;;
67902;SDS011;54708;43.612;1.568;2023-04-28T00:13:53;2.72;;;1.35;;
67902;SDS011;54708;43.612;1.568;2023-04-28T00:16:18;5.97;;;1.80;;
67902;SDS011;54708;43.612;1.568;2023-04-28T00:18:43;2.10;;;1.77;;
67902;SDS011;54708;43.612;1.568;2023-04-28T00:21:09;3.47;;;1.48;;
67902;SDS011;54708;43.612;1.568;2023-04-28T00:23:34;4.40;;;1.60;;
67902;SDS011;54708;43.612;1.568;2023-04-28T00:26:00;4.45;;;1.50;;
67902;SDS011;54708;43.612;1.568;2023-04-28T00:28:25;4.18;;;1.92;;
67902;SDS011;54708;43.612;1.568;2023-04-28T00:30:50;4.63;;;1.83;;
67902;SDS011;54708;43.612;1.568;2023-04-28T00:33:16;2.50;;;1.42;;
67902;SDS011;54708;43.612;1.568;2023-04-28T00:35:41;1.98;;;1.70;;
67902;SDS011;54708;43.612;1.568;2023-04-28T00:38:07;1.75;;;1.35;;
67902;SDS011;54708;43.612;1.568;2023-04-28T00:40:36;4.40;;;1.30;;
67902;SDS011;54708;43.612;1.568;2023-04-28T00:43:02;2.13;;;1.95;;
67902;SDS011;54708;43.612;1.568;2023-04-28T00:45:27;2.78;;;1.40;;
67902;SDS011;54708;43.612;1.568;2023-04-28T00:47:53;3.90;;;2.33;;
67902;SDS011;54708;43.612;1.568;2023-04-28T00:50:20;2.10;;;1.73;;
67902;SDS011;54708;43.612;1.568;2023-04-28T00:52:46;1.90;;;1.67;;
67902;SDS011;54708;43.612;1.568;2023-04-28T00:55:11;2.40;;;1.48;;
67902;SDS011;54708;43.612;1.568;2023-04-28T00:57:39;3.22;;;1.65;;
67902;SDS011;54708;43.612;1.568;2023-04-28T01:00:05;2.63;;;2.00;;
67902;SDS011;54708;43.612;1.568;2023-04-28T01:02:30;3.03;;;2.05;;
67902;SDS011;54708;43.612;1.568;2023-04-28T01:04:56;5.70;;;1.70;;
67902;SDS011;54708;43.612;1.568;2023-04-28T01:07:22;1.95;;;1.75;;
67902;SDS011;54708;43.612;1.568;2023-04-28T01:09:47;4.63;;;1.90;;
67902;SDS011;54708;43.612;1.568;2023-04-28T01:12:12;3.22;;;1.80;;
67902;SDS011;54708;43.612;1.568;2023-04-28T01:14:38;2.58;;;2.25;;
67902;SDS011;54708;43.612;1.568;2023-04-28T01:17:03;3.72;;;1.90;;
67902;SDS011;54708;43.612;1.568;2023-04-28T01:19:29;2.25;;;2.00;;
67902;SDS011;54708;43.612;1.568;2023-04-28T01:21:55;1.98;;;1.80;;
67902;SDS011;54708;43.612;1.568;2023-04-28T01:24:20;2.20;;;1.98;;
67902;SDS011;54708;43.612;1.568;2023-04-28T01:26:46;4.82;;;1.95;;
67902;SDS011;54708;43.612;1.568;2023-04-28T01:29:11;1.75;;;1.63;;
67902;SDS011;54708;43.612;1.568;2023-04-28T01:31:37;2.95;;;2.20;;
67902;SDS011;54708;43.612;1.568;2023-04-28T01:34:02;4.63;;;1.88;;
67902;SDS011;54708;43.612;1.568;2023-04-28T01:36:27;2.63;;;1.77;;
67902;SDS011;54708;43.612;1.568;2023-04-28T01:38:53;5.47;;;2.10;;
67902;SDS011;54708;43.612;1.568;2023-04-28T01:41:19;2.95;;;1.75;;
67902;SDS011;54708;43.612;1.568;2023-04-28T01:43:44;3.03;;;2.00;;
67902;SDS011;54708;43.612;1.568;2023-04-28T01:46:10;1.98;;;1.80;;
67902;SDS011;54708;43.612;1.568;2023-04-28T01:48:35;2.75;;;2.22;;
67902;SDS011;54708;43.612;1.568;2023-04-28T01:51:00;3.63;;;2.97;;
67902;SDS011;54708;43.612;1.568;2023-04-28T01:53:26;7.47;;;2.05;;
67902;SDS011;54708;43.612;1.568;2023-04-28T01:55:52;5.53;;;2.22;;
67902;SDS011;54708;43.612;1.568;2023-04-28T01:58:17;2.70;;;2.00;;
67902;SDS011;54708;43.612;1.568;2023-04-28T02:00:43;2.90;;;1.98;;
67902;SDS011;54708;43.612;1.568;2023-04-28T02:03:08;3.35;;;1.95;;
67902;SDS011;54708;43.612;1.568;2023-04-28T02:05:33;3.90;;;2.05;;
67902;SDS011;54708;43.612;1.568;2023-04-28T02:07:59;5.03;;;2.33;;
67902;SDS011;54708;43.612;1.568;2023-04-28T02:10:24;3.08;;;2.22;;
67902;SDS011;54708;43.612;1.568;2023-04-28T02:12:50;2.17;;;1.98;;
67902;SDS011;54708;43.612;1.568;2023-04-28T02:15:15;5.03;;;2.42;;
67902;SDS011;54708;43.612;1.568;2023-04-28T02:17:41;4.60;;;1.90;;
67902;SDS011;54708;43.612;1.568;2023-04-28T02:20:06;4.45;;;2.10;;
67902;SDS011;54708;43.612;1.568;2023-04-28T02:22:32;3.15;;;2.17;;
67902;SDS011;54708;43.612;1.568;2023-04-28T02:24:57;3.30;;;2.58;;
67902;SDS011;54708;43.612;1.568;2023-04-28T02:27:23;4.05;;;2.45;;
67902;SDS011;54708;43.612;1.568;2023-04-28T02:29:48;5.45;;;2.75;;
67902;SDS011;54708;43.612;1.568;2023-04-28T02:32:13;3.03;;;2.40;;
67902;SDS011;54708;43.612;1.568;2023-04-28T02:34:39;4.43;;;2.17;;
67902;SDS011;54708;43.612;1.568;2023-04-28T02:37:04;2.22;;;2.03;;
67902;SDS011;54708;43.612;1.568;2023-04-28T02:39:30;3.80;;;2.17;;
67902;SDS011;54708;43.612;1.568;2023-04-28T02:41:57;3.17;;;1.88;;
67902;SDS011;54708;43.612;1.568;2023-04-28T02:44:22;5.03;;;2.40;;
67902;SDS011;54708;43.612;1.568;2023-04-28T02:46:48;4.53;;;2.53;;
67902;SDS011;54708;43.612;1.568;2023-04-28T02:49:14;4.25;;;2.22;;
67902;SDS011;54708;43.612;1.568;2023-04-28T02:51:39;2.90;;;2.05;;
67902;SDS011;54708;43.612;1.568;2023-04-28T02:54:05;5.60;;;3.40;;
67902;SDS011;54708;43.612;1.568;2023-04-28T02:56:30;5.28;;;2.20;;
67902;SDS011;54708;43.612;1.568;2023-04-28T02:58:56;4.35;;;2.40;;
67902;SDS011;54708;43.612;1.568;2023-04-28T03:01:22;5.35;;;2.75;;
67902;SDS011;54708;43.612;1.568;2023-04-28T03:03:47;2.25;;;1.90;;
67902;SDS011;54708;43.612;1.568;2023-04-28T03:06:13;2.53;;;2.10;;
67902;SDS011;54708;43.612;1.568;2023-04-28T03:08:38;5.22;;;2.13;;
67902;SDS011;54708;43.612;1.568;2023-04-28T03:11:03;3.08;;;2.00;;
67902;SDS011;54708;43.612;1.568;2023-04-28T03:13:29;7.43;;;2.45;;
67902;SDS011;54708;43.612;1.568;2023-04-28T03:15:54;2.47;;;2.28;;
67902;SDS011;54708;43.612;1.568;2023-04-28T03:18:20;4.20;;;1.83;;
67902;SDS011;54708;43.612;1.568;2023-04-28T03:20:46;8.38;;;3.47;;
67902;SDS011;54708;43.612;1.568;2023-04-28T03:23:12;3.30;;;2.17;;
67902;SDS011;54708;43.612;1.568;2023-04-28T03:25:37;2.38;;;1.80;;
67902;SDS011;54708;43.612;1.568;2023-04-28T03:28:03;6.28;;;2.13;;
67902;SDS011;54708;43.612;1.568;2023-04-28T03:30:29;4.22;;;2.28;;
67902;SDS011;54708;43.612;1.568;2023-04-28T03:32:54;2.97;;;1.85;;
67902;SDS011;54708;43.612;1.568;2023-04-28T03:35:19;2.30;;;2.10;;
67902;SDS011;54708;43.612;1.568;2023-04-28T03:37:45;4.82;;;2.25;;
67902;SDS011;54708;43.612;1.568;2023-04-28T03:40:11;4.22;;;2.38;;
67902;SDS011;54708;43.612;1.568;2023-04-28T03:42:36;4.72;;;1.98;;
67902;SDS011;54708;43.612;1.568;2023-04-28T03:45:02;5.07;;;2.72;;
67902;SDS011;54708;43.612;1.568;2023-04-28T03:47:27;5.90;;;2.10;;
67902;SDS011;54708;43.612;1.568;2023-04-28T03:49:53;6.88;;;2.10;;
67902;SDS011;54708;43.612;1.568;2023-04-28T03:52:18;3.22;;;2.17;;
67902;SDS011;54708;43.612;1.568;2023-04-28T03:54:43;3.67;;;2.10;;
67902;SDS011;54708;43.612;1.568;2023-04-28T03:57:09;2.72;;;2.42;;
67902;SDS011;54708;43.612;1.568;2023-04-28T03:59:35;3.88;;;2.30;;
67902;SDS011;54708;43.612;1.568;2023-04-28T04:02:00;3.92;;;2.47;;
67902;SDS011;54708;43.612;1.568;2023-04-28T04:04:26;2.35;;;2.10;;
67902;SDS011;54708;43.612;1.568;2023-04-28T04:06:51;6.50;;;2.72;;
67902;SDS011;54708;43.612;1.568;2023-04-28T04:09:16;3.28;;;2.50;;
67902;SDS011;54708;43.612;1.568;2023-04-28T04:11:42;2.55;;;1.92;;
67902;SDS011;54708;43.612;1.568;2023-04-28T04:14:07;3.38;;;2.00;;
67902;SDS011;54708;43.612;1.568;2023-04-28T04:16:33;4.13;;;2.17;;
67902;SDS011;54708;43.612;1.568;2023-04-28T04:18:59;3.90;;;2.55;;
67902;SDS011;54708;43.612;1.568;2023-04-28T04:21:25;5.28;;;2.40;;
67902;SDS011;54708;43.612;1.568;2023-04-28T04:23:51;2.75;;;2.30;;
67902;SDS011;54708;43.612;1.568;2023-04-28T04:26:17;3.25;;;2.17;;
67902;SDS011;54708;43.612;1.568;2023-04-28T04:28:42;2.70;;;2.50;;
67902;SDS011;54708;43.612;1.568;2023-04-28T04:31:08;3.38;;;2.55;;
67902;SDS011;54708;43.612;1.568;2023-04-28T04:33:33;4.32;;;2.90;;
67902;SDS011;54708;43.612;1.568;2023-04-28T04:35:59;4.38;;;2.80;;
67902;SDS011;54708;43.612;1.568;2023-04-28T04:38:24;8.00;;;3.17;;
67902;SDS011;54708;43.612;1.568;2023-04-28T04:40:50;4.32;;;2.45;;
67902;SDS011;54708;43.612;1.568;2023-04-28T04:43:15;3.97;;;2.50;;
67902;SDS011;54708;43.612;1.568;2023-04-28T04:45:41;4.47;;;2.40;;
67902;SDS011;54708;43.612;1.568;2023-04-28T04:48:06;2.97;;;2.67;;
67902;SDS011;54708;43.612;1.568;2023-04-28T04:50:31;4.13;;;2.45;;
67902;SDS011;54708;43.612;1.568;2023-04-28T04:52:57;3.58;;;2.67;;
67902;SDS011;54708;43.612;1.568;2023-04-28T04:55:22;5.13;;;2.80;;
67902;SDS011;54708;43.612;1.568;2023-04-28T04:57:48;5.43;;;2.85;;
67902;SDS011;54708;43.612;1.568;2023-04-28T05:00:13;5.20;;;2.63;;
67902;SDS011;54708;43.612;1.568;2023-04-28T05:02:40;3.90;;;3.17;;
67902;SDS011;54708;43.612;1.568;2023-04-28T05:05:06;3.22;;;2.88;;
67902;SDS011;54708;43.612;1.568;2023-04-28T05:07:32;2.92;;;2.72;;
67902;SDS011;54708;43.612;1.568;2023-04-28T05:09:58;3.78;;;3.45;;
67902;SDS011;54708;43.612;1.568;2023-04-28T05:12:23;3.70;;;2.95;;
67902;SDS011;54708;43.612;1.568;2023-04-28T05:14:48;3.65;;;2.90;;
67902;SDS011;54708;43.612;1.568;2023-04-28T05:17:14;3.60;;;3.03;;
67902;SDS011;54708;43.612;1.568;2023-04-28T05:19:39;4.95;;;3.17;;
67902;SDS011;54708;43.612;1.568;2023-04-28T05:22:04;4.25;;;2.83;;
67902;SDS011;54708;43.612;1.568;2023-04-28T05:24:30;3.58;;;2.60;;
67902;SDS011;54708;43.612;1.568;2023-04-28T05:26:57;4.88;;;3.13;;
67902;SDS011;54708;43.612;1.568;2023-04-28T05:29:22;5.25;;;3.08;;
67902;SDS011;54708;43.612;1.568;2023-04-28T05:31:48;3.70;;;3.30;;
67902;SDS011;54708;43.612;1.568;2023-04-28T05:34:13;5.25;;;2.92;;
67902;SDS011;54708;43.612;1.568;2023-04-28T05:36:38;4.22;;;2.80;;
67902;SDS011;54708;43.612;1.568;2023-04-28T05:39:04;5.35;;;2.90;;
67902;SDS011;54708;43.612;1.568;2023-04-28T05:41:30;3.63;;;2.70;;
67902;SDS011;54708;43.612;1.568;2023-04-28T05:43:55;3.50;;;2.75;;
67902;SDS011;54708;43.612;1.568;2023-04-28T05:46:20;3.55;;;2.80;;
67902;SDS011;54708;43.612;1.568;2023-04-28T05:48:46;4.70;;;3.13;;
67902;SDS011;54708;43.612;1.568;2023-04-28T05:51:11;5.53;;;3.03;;
67902;SDS011;54708;43.612;1.568;2023-04-28T05:53:36;4.70;;;3.10;;
67902;SDS011;54708;43.612;1.568;2023-04-28T05:56:02;3.95;;;2.90;;
67902;SDS011;54708;43.612;1.568;2023-04-28T05:58:27;2.90;;;2.60;;
67902;SDS011;54708;43.612;1.568;2023-04-28T06:00:53;4.63;;;3.05;;
67902;SDS011;54708;43.612;1.568;2023-04-28T06:03:19;4.28;;;2.55;;
67902;SDS011;54708;43.612;1.568;2023-04-28T06:05:44;3.85;;;3.17;;
67902;SDS011;54708;43.612;1.568;2023-04-28T06:08:10;4.35;;;3.00;;
67902;SDS011;54708;43.612;1.568;2023-04-28T06:10:35;5.50;;;2.65;;
67902;SDS011;54708;43.612;1.568;2023-04-28T06:13:00;3.10;;;2.80;;
67902;SDS011;54708;43.612;1.568;2023-04-28T06:15:28;3.80;;;2.78;;
67902;SDS011;54708;43.612;1.568;2023-04-28T06:17:54;6.07;;;2.92;;
67902;SDS011;54708;43.612;1.568;2023-04-28T06:20:20;5.28;;;2.78;;
67902;SDS011;54708;43.612;1.568;2023-04-28T06:22:45;14.70;;;3.10;;
67902;SDS011;54708;43.612;1.568;2023-04-28T06:25:10;3.17;;;2.72;;
67902;SDS011;54708;43.612;1.568;2023-04-28T06:27:36;5.25;;;2.78;;
67902;SDS011;54708;43.612;1.568;2023-04-28T06:30:01;3.25;;;2.95;;
67902;SDS011;54708;43.612;1.568;2023-04-28T06:32:27;4.55;;;3.28;;
67902;SDS011;54708;43.612;1.568;2023-04-28T06:34:52;4.47;;;3.10;;
67902;SDS011;54708;43.612;1.568;2023-04-28T06:37:18;3.58;;;3.13;;
67902;SDS011;54708;43.612;1.568;2023-04-28T06:39:43;4.35;;;3.90;;
67902;SDS011;54708;43.612;1.568;2023-04-28T06:42:08;4.18;;;3.25;;
67902;SDS011;54708;43.612;1.568;2023-04-28T06:44:34;5.05;;;3.25;;
67902;SDS011;54708;43.612;1.568;2023-04-28T06:46:59;3.17;;;2.83;;
67902;SDS011;54708;43.612;1.568;2023-04-28T06:49:25;5.00;;;3.40;;
67902;SDS011;54708;43.612;1.568;2023-04-28T06:51:51;4.75;;;3.47;;
67902;SDS011;54708;43.612;1.568;2023-04-28T06:54:16;5.75;;;3.30;;
67902;SDS011;54708;43.612;1.568;2023-04-28T06:56:42;5.55;;;3.70;;
67902;SDS011;54708;43.612;1.568;2023-04-28T06:59:07;5.68;;;3.30;;
67902;SDS011;54708;43.612;1.568;2023-04-28T07:01:33;5.38;;;3.20;;
67902;SDS011;54708;43.612;1.568;2023-04-28T07:03:58;5.03;;;3.03;;
67902;SDS011;54708;43.612;1.568;2023-04-28T07:06:23;7.60;;;3.00;;
67902;SDS011;54708;43.612;1.568;2023-04-28T07:08:51;5.32;;;3.15;;
67902;SDS011;54708;43.612;1.568;2023-04-28T07:11:17;4.60;;;3.00;;
67902;SDS011;54708;43.612;1.568;2023-04-28T07:13:42;3.42;;;3.00;;
67902;SDS011;54708;43.612;1.568;2023-04-28T07:16:07;6.25;;;3.35;;
67902;SDS011;54708;43.612;1.568;2023-04-28T07:18:35;5.22;;;3.08;;
67902;SDS011;54708;43.612;1.568;2023-04-28T07:21:00;4.55;;;3.05;;
67902;SDS011;54708;43.612;1.568;2023-04-28T07:23:25;3.63;;;2.60;;
67902;SDS011;54708;43.612;1.568;2023-04-28T07:25:51;4.03;;;2.75;;
67902;SDS011;54708;43.612;1.568;2023-04-28T07:28:16;7.05;;;3.55;;
67902;SDS011;54708;43.612;1.568;2023-04-28T07:30:41;4.28;;;3.17;;
67902;SDS011;54708;43.612;1.568;2023-04-28T07:33:07;6.25;;;3.42;;
67902;SDS011;54708;43.612;1.568;2023-04-28T07:35:32;6.93;;;3.08;;
67902;SDS011;54708;43.612;1.568;2023-04-28T07:37:58;4.75;;;3.00;;
67902;SDS011;54708;43.612;1.568;2023-04-28T07:40:23;5.20;;;2.78;;
67902;SDS011;54708;43.612;1.568;2023-04-28T07:42:49;6.90;;;3.22;;
67902;SDS011;54708;43.612;1.568;2023-04-28T07:45:15;6.15;;;2.58;;
67902;SDS011;54708;43.612;1.568;2023-04-28T07:47:41;4.90;;;2.55;;
67902;SDS011;54708;43.612;1.568;2023-04-28T07:50:06;4.47;;;2.92;;
67902;SDS011;54708;43.612;1.568;2023-04-28T07:52:32;4.75;;;2.72;;
67902;SDS011;54708;43.612;1.568;2023-04-28T07:54:58;4.95;;;2.90;;
67902;SDS011;54708;43.612;1.568;2023-04-28T07:57:24;6.50;;;3.17;;
67902;SDS011;54708;43.612;1.568;2023-04-28T07:59:50;3.85;;;3.00;;
67902;SDS011;54708;43.612;1.568;2023-04-28T08:02:16;6.03;;;2.78;;
67902;SDS011;54708;43.612;1.568;2023-04-28T08:04:43;7.07;;;3.00;;
67902;SDS011;54708;43.612;1.568;2023-04-28T08:07:08;5.93;;;2.97;;
67902;SDS011;54708;43.612;1.568;2023-04-28T08:09:34;3.10;;;2.75;;
67902;SDS011;54708;43.612;1.568;2023-04-28T08:12:00;4.57;;;2.83;;
67902;SDS011;54708;43.612;1.568;2023-04-28T08:14:26;6.55;;;2.92;;
67902;SDS011;54708;43.612;1.568;2023-04-28T08:16:51;5.40;;;2.95;;
67902;SDS011;54708;43.612;1.568;2023-04-28T08:19:17;4.25;;;2.80;;
67902;SDS011;54708;43.612;1.568;2023-04-28T08:21:43;6.22;;;2.58;;
67902;SDS011;54708;43.612;1.568;2023-04-28T08:24:08;4.95;;;3.78;;
67902;SDS011;54708;43.612;1.568;2023-04-28T08:26:35;5.38;;;3.38;;
67902;SDS011;54708;43.612;1.568;2023-04-28T08:29:01;6.05;;;2.83;;
67902;SDS011;54708;43.612;1.568;2023-04-28T08:31:26;5.35;;;2.75;;
67902;SDS011;54708;43.612;1.568;2023-04-28T08:33:52;4.72;;;2.92;;
67902;SDS011;54708;43.612;1.568;2023-04-28T08:36:17;4.57;;;2.88;;
67902;SDS011;54708;43.612;1.568;2023-04-28T08:38:43;5.95;;;2.90;;
67902;SDS011;54708;43.612;1.568;2023-04-28T08:41:09;4.25;;;3.00;;
67902;SDS011;54708;43.612;1.568;2023-04-28T08:43:45;7.40;;;3.03;;
67902;SDS011;54708;43.612;1.568;2023-04-28T08:46:11;4.43;;;3.45;;
67902;SDS011;54708;43.612;1.568;2023-04-28T08:48:40;4.93;;;2.70;;
67902;SDS011;54708;43.612;1.568;2023-04-28T08:51:07;4.32;;;2.90;;
67902;SDS011;54708;43.612;1.568;2023-04-28T08:53:35;4.82;;;2.75;;
67902;SDS011;54708;43.612;1.568;2023-04-28T08:56:02;4.47;;;2.70;;
67902;SDS011;54708;43.612;1.568;2023-04-28T08:58:29;7.00;;;3.58;;
67902;SDS011;54708;43.612;1.568;2023-04-28T09:00:55;3.92;;;3.33;;
67902;SDS011;54708;43.612;1.568;2023-04-28T09:03:20;3.63;;;2.95;;
67902;SDS011;54708;43.612;1.568;2023-04-28T09:05:46;3.30;;;2.92;;
67902;SDS011;54708;43.612;1.568;2023-04-28T09:08:11;5.97;;;2.80;;
67902;SDS011;54708;43.612;1.568;2023-04-28T09:10:37;3.97;;;3.63;;
67902;SDS011;54708;43.612;1.568;2023-04-28T09:13:03;6.40;;;3.60;;
67902;SDS011;54708;43.612;1.568;2023-04-28T09:17:58;4.35;;;3.35;;
67902;SDS011;54708;43.612;1.568;2023-04-28T09:20:24;4.35;;;2.88;;
67902;SDS011;54708;43.612;1.568;2023-04-28T09:22:51;4.63;;;2.88;;
67902;SDS011;54708;43.612;1.568;2023-04-28T09:25:18;4.32;;;3.20;;
67902;SDS011;54708;43.612;1.568;2023-04-28T09:27:46;4.10;;;2.55;;
67902;SDS011;54708;43.612;1.568;2023-04-28T09:30:11;5.60;;;2.90;;
67902;SDS011;54708;43.612;1.568;2023-04-28T09:32:37;3.88;;;3.25;;
67902;SDS011;54708;43.612;1.568;2023-04-28T09:35:02;6.68;;;3.58;;
67902;SDS011;54708;43.612;1.568;2023-04-28T09:37:29;4.53;;;3.00;;
67902;SDS011;54708;43.612;1.568;2023-04-28T09:39:55;5.57;;;2.80;;
67902;SDS011;54708;43.612;1.568;2023-04-28T09:45:04;5.22;;;3.58;;
67902;SDS011;54708;43.612;1.568;2023-04-28T09:47:30;3.88;;;2.60;;
67902;SDS011;54708;43.612;1.568;2023-04-28T09:49:59;2.72;;;2.42;;
67902;SDS011;54708;43.612;1.568;2023-04-28T09:52:27;5.18;;;2.80;;
67902;SDS011;54708;43.612;1.568;2023-04-28T09:54:53;4.00;;;3.17;;
67902;SDS011;54708;43.612;1.568;2023-04-28T09:57:20;8.82;;;3.17;;
67902;SDS011;54708;43.612;1.568;2023-04-28T09:59:50;6.32;;;3.20;;
67902;SDS011;54708;43.612;1.568;2023-04-28T10:02:17;7.38;;;3.38;;
67902;SDS011;54708;43.612;1.568;2023-04-28T10:04:44;5.90;;;3.38;;
67902;SDS011;54708;43.612;1.568;2023-04-28T10:07:11;3.20;;;2.90;;
67902;SDS011;54708;43.612;1.568;2023-04-28T10:09:40;5.70;;;2.80;;
67902;SDS011;54708;43.612;1.568;2023-04-28T10:12:11;3.15;;;2.85;;
67902;SDS011;54708;43.612;1.568;2023-04-28T10:14:38;6.22;;;4.55;;
67902;SDS011;54708;43.612;1.568;2023-04-28T10:17:03;5.68;;;2.67;;
67902;SDS011;54708;43.612;1.568;2023-04-28T10:19:32;6.53;;;3.10;;
67902;SDS011;54708;43.612;1.568;2023-04-28T10:25:38;5.18;;;2.75;;
67902;SDS011;54708;43.612;1.568;2023-04-28T10:27:48;6.30;;;3.63;;
67902;SDS011;54708;43.612;1.568;2023-04-28T10:30:15;3.47;;;3.10;;
67902;SDS011;54708;43.612;1.568;2023-04-28T10:32:41;8.82;;;3.08;;
67902;SDS011;54708;43.612;1.568;2023-04-28T10:40:56;4.93;;;2.45;;
67902;SDS011;54708;43.612;1.568;2023-04-28T10:58:35;3.00;;;2.75;;
67902;SDS011;54708;43.612;1.568;2023-04-28T11:08:45;3.38;;;2.10;;
67902;SDS011;54708;43.612;1.568;2023-04-28T11:13:38;11.55;;;3.17;;
67902;SDS011;54708;43.612;1.568;2023-04-28T11:16:03;4.53;;;2.45;;
67902;SDS011;54708;43.612;1.568;2023-04-28T11:18:31;3.10;;;2.80;;
67902;SDS011;54708;43.612;1.568;2023-04-28T11:21:13;3.78;;;2.78;;
67902;SDS011;54708;43.612;1.568;2023-04-28T11:23:38;3.08;;;2.17;;
67902;SDS011;54708;43.612;1.568;2023-04-28T11:26:04;2.83;;;2.38;;
67902;SDS011;54708;43.612;1.568;2023-04-28T11:28:29;3.05;;;2.75;;
67902;SDS011;54708;43.612;1.568;2023-04-28T11:31:09;4.35;;;2.60;;
67902;SDS011;54708;43.612;1.568;2023-04-28T11:33:36;3.20;;;2.75;;
67902;SDS011;54708;43.612;1.568;2023-04-28T11:36:02;4.60;;;2.67;;
67902;SDS011;54708;43.612;1.568;2023-04-28T11:38:28;3.22;;;2.75;;
67902;SDS011;54708;43.612;1.568;2023-04-28T11:40:58;3.30;;;3.00;;
67902;SDS011;54708;43.612;1.568;2023-04-28T11:43:29;3.30;;;2.53;;
67902;SDS011;54708;43.612;1.568;2023-04-28T11:45:55;5.28;;;2.67;;
67902;SDS011;54708;43.612;1.568;2023-04-28T11:48:21;4.47;;;2.72;;
67902;SDS011;54708;43.612;1.568;2023-04-28T11:50:47;3.97;;;2.85;;
67902;SDS011;54708;43.612;1.568;2023-04-28T11:53:12;5.65;;;3.28;;
67902;SDS011;54708;43.612;1.568;2023-04-28T11:55:38;3.40;;;2.85;;
67902;SDS011;54708;43.612;1.568;2023-04-28T11:58:19;3.30;;;3.00;;
67902;SDS011;54708;43.612;1.568;2023-04-28T12:03:54;5.68;;;3.40;;
67902;SDS011;54708;43.612;1.568;2023-04-28T12:06:19;2.90;;;2.60;;
67902;SDS011;54708;43.612;1.568;2023-04-28T12:08:44;3.90;;;2.88;;
67902;SDS011;54708;43.612;1.568;2023-04-28T12:11:11;3.50;;;3.10;;
67902;SDS011;54708;43.612;1.568;2023-04-28T12:13:37;3.25;;;2.65;;
67902;SDS011;54708;43.612;1.568;2023-04-28T12:16:04;26.95;;;5.60;;
67902;SDS011;54708;43.612;1.568;2023-04-28T12:18:33;7.18;;;3.25;;
67902;SDS011;54708;43.612;1.568;2023-04-28T12:21:00;3.80;;;3.45;;
67902;SDS011;54708;43.612;1.568;2023-04-28T12:25:56;6.32;;;3.40;;
67902;SDS011;54708;43.612;1.568;2023-04-28T12:28:21;3.53;;;3.10;;
67902;SDS011;54708;43.612;1.568;2023-04-28T12:30:47;5.05;;;2.90;;
67902;SDS011;54708;43.612;1.568;2023-04-28T12:33:22;5.43;;;2.95;;
67902;SDS011;54708;43.612;1.568;2023-04-28T12:35:49;6.60;;;3.38;;
67902;SDS011;54708;43.612;1.568;2023-04-28T12:38:14;3.97;;;3.40;;
67902;SDS011;54708;43.612;1.568;2023-04-28T12:40:40;7.18;;;4.00;;
67902;SDS011;54708;43.612;1.568;2023-04-28T12:43:06;4.90;;;3.45;;
67902;SDS011;54708;43.612;1.568;2023-04-28T12:45:31;3.70;;;3.25;;
67902;SDS011;54708;43.612;1.568;2023-04-28T12:47:57;6.45;;;3.85;;
67902;SDS011;54708;43.612;1.568;2023-04-28T12:50:23;5.00;;;3.22;;
67902;SDS011;54708;43.612;1.568;2023-04-28T12:52:49;5.90;;;4.00;;
67902;SDS011;54708;43.612;1.568;2023-04-28T12:55:15;6.13;;;3.72;;
67902;SDS011;54708;43.612;1.568;2023-04-28T12:57:40;8.60;;;4.05;;
67902;SDS011;54708;43.612;1.568;2023-04-28T13:00:06;5.80;;;3.50;;
67902;SDS011;54708;43.612;1.568;2023-04-28T13:02:32;7.05;;;4.13;;
67902;SDS011;54708;43.612;1.568;2023-04-28T13:04:58;7.82;;;4.43;;
67902;SDS011;54708;43.612;1.568;2023-04-28T13:07:23;9.75;;;4.53;;
67902;SDS011;54708;43.612;1.568;2023-04-28T13:09:49;6.70;;;4.22;;
67902;SDS011;54708;43.612;1.568;2023-04-28T13:12:14;6.50;;;3.80;;
67902;SDS011;54708;43.612;1.568;2023-04-28T13:14:39;8.60;;;4.05;;
67902;SDS011;54708;43.612;1.568;2023-04-28T13:17:05;5.65;;;3.78;;
67902;SDS011;54708;43.612;1.568;2023-04-28T13:19:30;7.40;;;4.03;;
67902;SDS011;54708;43.612;1.568;2023-04-28T13:21:58;5.82;;;4.20;;
67902;SDS011;54708;43.612;1.568;2023-04-28T13:24:24;9.93;;;4.07;;
67902;SDS011;54708;43.612;1.568;2023-04-28T13:26:50;4.97;;;3.72;;
67902;SDS011;54708;43.612;1.568;2023-04-28T13:29:16;7.72;;;3.95;;
67902;SDS011;54708;43.612;1.568;2023-04-28T13:31:42;6.63;;;4.13;;
67902;SDS011;54708;43.612;1.568;2023-04-28T13:34:07;10.13;;;4.78;;
67902;SDS011;54708;43.612;1.568;2023-04-28T13:36:39;8.93;;;3.97;;
67902;SDS011;54708;43.612;1.568;2023-04-28T13:39:05;8.98;;;4.32;;
67902;SDS011;54708;43.612;1.568;2023-04-28T13:41:30;8.25;;;4.15;;
67902;SDS011;54708;43.612;1.568;2023-04-28T13:43:55;6.05;;;4.32;;
67902;SDS011;54708;43.612;1.568;2023-04-28T13:46:21;8.65;;;4.25;;
67902;SDS011;54708;43.612;1.568;2023-04-28T13:48:46;7.60;;;4.13;;
67902;SDS011;54708;43.612;1.568;2023-04-28T13:51:12;8.48;;;4.75;;
67902;SDS011;54708;43.612;1.568;2023-04-28T13:53:37;6.68;;;4.18;;
67902;SDS011;54708;43.612;1.568;2023-04-28T13:56:03;7.18;;;4.28;;
67902;SDS011;54708;43.612;1.568;2023-04-28T13:58:29;6.93;;;4.25;;
67902;SDS011;54708;43.612;1.568;2023-04-28T14:00:55;6.00;;;4.00;;
67902;SDS011;54708;43.612;1.568;2023-04-28T14:03:21;6.70;;;4.30;;
67902;SDS011;54708;43.612;1.568;2023-04-28T14:05:47;8.52;;;3.88;;
67902;SDS011;54708;43.612;1.568;2023-04-28T14:08:16;5.93;;;3.63;;
67902;SDS011;54708;43.612;1.568;2023-04-28T14:10:42;5.28;;;3.83;;
67902;SDS011;54708;43.612;1.568;2023-04-28T14:13:07;7.70;;;4.25;;
67902;SDS011;54708;43.612;1.568;2023-04-28T14:15:33;7.93;;;3.80;;
67902;SDS011;54708;43.612;1.568;2023-04-28T14:17:58;7.97;;;4.15;;
67902;SDS011;54708;43.612;1.568;2023-04-28T14:20:24;8.13;;;3.85;;
67902;SDS011;54708;43.612;1.568;2023-04-28T14:22:49;3.45;;;3.15;;
67902;SDS011;54708;43.612;1.568;2023-04-28T14:25:15;5.38;;;3.45;;
67902;SDS011;54708;43.612;1.568;2023-04-28T14:27:41;6.53;;;3.83;;
67902;SDS011;54708;43.612;1.568;2023-04-28T14:30:06;15.15;;;4.47;;
67902;SDS011;54708;43.612;1.568;2023-04-28T14:32:33;5.97;;;3.55;;
67902;SDS011;54708;43.612;1.568;2023-04-28T14:34:58;7.40;;;3.78;;
67902;SDS011;54708;43.612;1.568;2023-04-28T14:37:25;5.45;;;3.78;;
67902;SDS011;54708;43.612;1.568;2023-04-28T14:39:50;6.68;;;3.47;;
67902;SDS011;54708;43.612;1.568;2023-04-28T14:42:16;8.20;;;3.80;;
67902;SDS011;54708;43.612;1.568;2023-04-28T14:44:41;8.05;;;2.90;;
67902;SDS011;54708;43.612;1.568;2023-04-28T14:47:07;3.42;;;3.10;;
67902;SDS011;54708;43.612;1.568;2023-04-28T14:49:33;7.85;;;3.60;;
67902;SDS011;54708;43.612;1.568;2023-04-28T14:51:59;9.25;;;2.70;;
67902;SDS011;54708;43.612;1.568;2023-04-28T14:54:24;6.75;;;3.30;;
67902;SDS011;54708;43.612;1.568;2023-04-28T14:56:50;6.53;;;2.95;;
67902;SDS011;54708;43.612;1.568;2023-04-28T14:59:15;5.72;;;2.70;;
67902;SDS011;54708;43.612;1.568;2023-04-28T15:01:40;5.85;;;3.50;;
67902;SDS011;54708;43.612;1.568;2023-04-28T15:04:06;5.93;;;2.85;;
67902;SDS011;54708;43.612;1.568;2023-04-28T15:06:33;4.63;;;3.10;;
67902;SDS011;54708;43.612;1.568;2023-04-28T15:08:59;5.80;;;2.70;;
67902;SDS011;54708;43.612;1.568;2023-04-28T15:11:24;7.97;;;2.97;;
67902;SDS011;54708;43.612;1.568;2023-04-28T15:13:50;6.63;;;3.13;;
67902;SDS011;54708;43.612;1.568;2023-04-28T15:16:15;9.05;;;3.53;;
67902;SDS011;54708;43.612;1.568;2023-04-28T15:18:41;4.50;;;2.70;;
67902;SDS011;54708;43.612;1.568;2023-04-28T15:21:06;3.47;;;2.70;;
67902;SDS011;54708;43.612;1.568;2023-04-28T15:23:32;6.97;;;3.63;;
67902;SDS011;54708;43.612;1.568;2023-04-28T15:25:58;4.18;;;3.10;;